Time;durP1;ratioP1;P1;durP2;ratioP2;P2;SDS_P1;SDS_P2;PMS_P1;PMS_P2;Temp;Humidity;BMP_temperature;BMP_pressure;BME280_temperature;BME280_humidity;BME280_pressure;Samples;Min_cycle;Max_cycle;Signal;HPM_P1;HPM_P2
2022/10/26 00:03:57;;;;;;;5.20;2.13;;;;;12.70;100697.00;;;;10306176;28;20685;-74
2022/10/26 00:08:59;;;;;;;5.40;1.90;;;;;12.70;100681.00;;;;10300757;28;20242;-74
2022/10/26 00:14:00;;;;;;;3.97;1.90;;;;;12.70;100682.00;;;;10278751;28;20882;-74
2022/10/26 00:19:02;;;;;;;7.97;2.23;;;;;12.70;100678.00;;;;10311049;28;20200;-74
2022/10/26 00:24:04;;;;;;;5.13;2.20;;;;;12.70;100679.00;;;;10274054;28;20192;-74
2022/10/26 00:29:07;;;;;;;8.63;2.20;;;;;12.70;100678.00;;;;10323574;28;20205;-75
2022/10/26 00:34:10;;;;;;;4.27;1.60;;;;;12.80;100673.00;;;;10315999;28;20215;-74
2022/10/26 00:39:12;;;;;;;3.13;1.90;;;;;12.80;100668.00;;;;10318817;28;20207;-74
2022/10/26 00:44:45;;;;;;;4.40;1.93;;;;;12.80;100669.00;;;;10293326;28;20201;-74
2022/10/26 00:49:51;;;;;;;3.67;2.00;;;;;12.90;100657.00;;;;10306946;28;20200;-74
2022/10/26 00:54:53;;;;;;;6.47;2.10;;;;;13.00;100661.00;;;;10284384;28;20231;-75
2022/10/26 00:59:57;;;;;;;2.50;2.00;;;;;13.00;100661.00;;;;10296843;28;20250;-74
2022/10/26 01:05:01;;;;;;;8.30;1.90;;;;;13.00;100657.00;;;;10272350;28;20756;-74
2022/10/26 01:10:05;;;;;;;4.63;2.07;;;;;13.00;100651.00;;;;10306651;28;20255;-74
2022/10/26 01:15:07;;;;;;;10.87;3.00;;;;;12.90;100648.00;;;;10309139;28;20302;-74
2022/10/26 01:20:40;;;;;;;4.27;1.53;;;;;12.90;100639.00;;;;10295114;28;20299;-74
2022/10/26 01:26:00;;;;;;;5.77;2.20;;;;;12.90;100636.00;;;;10294072;28;20192;-74
2022/10/26 01:31:05;;;;;;;5.17;1.93;;;;;12.80;100630.00;;;;10328943;28;20204;-74
2022/10/26 01:36:24;;;;;;;3.93;1.67;;;;;12.70;100620.00;;;;10314508;28;20205;-74
2022/10/26 01:41:35;;;;;;;4.27;2.00;;;;;12.60;100633.00;;;;10291762;28;20184;-74
2022/10/26 01:46:42;;;;;;;4.33;1.83;;;;;12.60;100624.00;;;;10303839;28;20200;-74
2022/10/26 01:51:46;;;;;;;8.67;1.87;;;;;12.60;100618.00;;;;10289999;28;20583;-74
2022/10/26 01:56:56;;;;;;;4.80;1.90;;;;;12.60;100620.00;;;;10292781;28;20208;-74
2022/10/26 02:02:22;;;;;;;4.97;1.83;;;;;12.70;100614.00;;;;10300229;28;20236;-74
2022/10/26 02:07:38;;;;;;;4.80;2.00;;;;;12.70;100615.00;;;;10334873;28;20230;-74
2022/10/26 02:12:49;;;;;;;3.80;1.77;;;;;12.70;100613.00;;;;10309988;28;20421;-74
2022/10/26 02:18:02;;;;;;;7.20;1.97;;;;;12.70;100617.00;;;;10303430;28;20242;-74
2022/10/26 02:23:06;;;;;;;4.53;1.57;;;;;12.70;100612.00;;;;10311298;28;20199;-74
2022/10/26 02:28:17;;;;;;;5.07;1.57;;;;;12.70;100606.00;;;;10291765;28;20199;-74
2022/10/26 02:33:20;;;;;;;6.03;1.73;;;;;12.70;100589.00;;;;10291868;28;20208;-74
2022/10/26 02:38:23;;;;;;;4.90;1.40;;;;;12.70;100599.00;;;;10313860;28;20195;-74
2022/10/26 02:43:27;;;;;;;5.43;1.70;;;;;12.80;100591.00;;;;10261982;28;20260;-74
2022/10/26 02:48:30;;;;;;;3.87;1.63;;;;;12.90;100589.00;;;;10287016;28;20655;-74
2022/10/26 02:53:38;;;;;;;3.73;1.60;;;;;12.90;100592.00;;;;10301291;28;20219;-74
2022/10/26 02:58:44;;;;;;;2.17;1.30;;;;;13.00;100586.00;;;;10303404;28;20184;-74
2022/10/26 03:03:47;;;;;;;2.90;1.33;;;;;13.20;100587.00;;;;10292793;28;20197;-74
2022/10/26 03:08:49;;;;;;;3.80;1.13;;;;;13.40;100581.00;;;;10307202;28;20717;-74
2022/10/26 03:13:51;;;;;;;3.20;1.30;;;;;13.60;100576.00;;;;10278112;28;20267;-74
2022/10/26 03:18:53;;;;;;;5.67;1.00;;;;;13.70;100574.00;;;;10340341;28;20200;-74
2022/10/26 03:23:55;;;;;;;2.67;1.20;;;;;13.90;100581.00;;;;10298311;28;20188;-74
2022/10/26 03:28:57;;;;;;;2.77;1.33;;;;;13.90;100583.00;;;;10297143;28;20206;-74
2022/10/26 03:33:59;;;;;;;2.23;0.93;;;;;14.00;100577.00;;;;10301126;28;20220;-74
2022/10/26 03:39:01;;;;;;;3.90;1.33;;;;;14.00;100586.00;;;;10305488;28;20193;-74
2022/10/26 03:44:03;;;;;;;1.90;1.13;;;;;13.80;100598.00;;;;10273247;28;20185;-74
2022/10/26 03:49:05;;;;;;;4.80;1.30;;;;;13.70;100604.00;;;;10308329;28;20252;-74
2022/10/26 03:54:07;;;;;;;7.13;1.43;;;;;13.60;100600.00;;;;10314257;28;20243;-74
2022/10/26 03:59:09;;;;;;;5.20;1.50;;;;;13.60;100603.00;;;;10288845;28;20602;-74
2022/10/26 04:04:11;;;;;;;2.57;1.23;;;;;13.70;100601.00;;;;10312085;28;20184;-74
2022/10/26 04:09:13;;;;;;;3.43;1.60;;;;;13.80;100608.00;;;;10304846;28;20202;-74
2022/10/26 04:14:14;;;;;;;4.07;1.53;;;;;13.90;100608.00;;;;10300873;28;21015;-74
2022/10/26 04:19:16;;;;;;;3.77;2.00;;;;;14.00;100609.00;;;;10313394;28;20200;-74
2022/10/26 04:24:18;;;;;;;4.77;1.20;;;;;14.00;100607.00;;;;10309678;28;20264;-74
2022/10/26 04:29:20;;;;;;;6.23;1.57;;;;;14.10;100611.00;;;;10324759;28;20192;-74
2022/10/26 04:34:22;;;;;;;1.80;1.20;;;;;14.20;100602.00;;;;10294444;28;20227;-74
2022/10/26 04:39:24;;;;;;;3.53;1.53;;;;;14.30;100604.00;;;;10300398;28;20720;-75
2022/10/26 04:44:26;;;;;;;2.80;1.50;;;;;14.30;100608.00;;;;10295808;28;20189;-74
2022/10/26 04:49:28;;;;;;;4.07;1.30;;;;;14.30;100614.00;;;;10299930;28;20591;-74
2022/10/26 04:54:30;;;;;;;2.73;1.50;;;;;14.30;100622.00;;;;10267316;28;20277;-74
2022/10/26 04:59:32;;;;;;;8.00;1.37;;;;;14.40;100632.00;;;;10282923;28;20291;-74
2022/10/26 05:04:33;;;;;;;2.33;1.33;;;;;14.40;100624.00;;;;10296320;28;20208;-74
2022/10/26 05:09:35;;;;;;;1.17;1.03;;;;;14.50;100632.00;;;;10298951;28;20204;-74
2022/10/26 05:14:37;;;;;;;5.07;1.93;;;;;14.50;100634.00;;;;10292960;28;20207;-74
2022/10/26 05:19:39;;;;;;;2.50;1.37;;;;;14.50;100648.00;;;;10309694;28;20209;-74
2022/10/26 05:24:41;;;;;;;5.83;1.67;;;;;14.50;100638.00;;;;10283166;28;20648;-74
2022/10/26 05:29:43;;;;;;;3.43;1.90;;;;;14.60;100634.00;;;;10273042;28;20185;-74
2022/10/26 05:34:45;;;;;;;5.50;2.20;;;;;14.60;100632.00;;;;10298984;28;20209;-74
2022/10/26 05:39:47;;;;;;;5.97;2.13;;;;;14.60;100631.00;;;;10269657;28;20184;-74
2022/10/26 05:44:49;;;;;;;2.83;1.70;;;;;14.50;100627.00;;;;10316257;28;20661;-74
2022/10/26 05:49:51;;;;;;;6.70;2.10;;;;;14.40;100627.00;;;;10312520;28;20663;-75
2022/10/26 05:54:53;;;;;;;23.60;3.13;;;;;14.30;100616.00;;;;10320317;28;20220;-74
2022/10/26 05:59:55;;;;;;;3.53;2.43;;;;;14.30;100630.00;;;;10333263;28;20202;-75
2022/10/26 06:05:02;;;;;;;3.53;1.97;;;;;14.20;100649.00;;;;10309550;28;20213;-74
2022/10/26 06:10:05;;;;;;;4.07;2.23;;;;;14.20;100665.00;;;;10298983;28;20655;-74
2022/10/26 06:15:11;;;;;;;2.33;1.83;;;;;14.10;100680.00;;;;10295871;28;20246;-74
2022/10/26 06:20:30;;;;;;;5.47;2.03;;;;;14.10;100668.00;;;;10337578;28;20196;-74
2022/10/26 06:25:48;;;;;;;4.50;1.73;;;;;14.10;100669.00;;;;10307293;28;20199;-74
2022/10/26 06:30:50;;;;;;;4.17;2.10;;;;;14.20;100675.00;;;;10300382;28;20227;-74
2022/10/26 06:36:15;;;;;;;7.87;2.20;;;;;14.20;100674.00;;;;10317248;28;20210;-74
2022/10/26 06:41:20;;;;;;;6.03;2.10;;;;;14.30;100691.00;;;;10306206;28;20189;-75
2022/10/26 06:46:49;;;;;;;4.00;2.00;;;;;14.30;100713.00;;;;10283699;28;20783;-74
2022/10/26 06:52:01;;;;;;;3.60;2.03;;;;;14.40;100712.00;;;;10321609;28;20200;-74
2022/10/26 06:57:03;;;;;;;5.07;2.20;;;;;14.50;100721.00;;;;10290909;28;20213;-74
2022/10/26 07:02:07;;;;;;;3.43;1.90;;;;;14.50;100727.00;;;;10307178;28;20188;-75
2022/10/26 07:07:27;;;;;;;4.23;2.33;;;;;14.60;100739.00;;;;10322043;28;20208;-75
2022/10/26 07:12:29;;;;;;;4.07;2.45;;;;;14.70;100735.00;;;;10310014;28;20215;-75
2022/10/26 07:17:47;;;;;;;3.92;2.10;;;;;15.00;100753.00;;;;10318443;28;20196;-74
2022/10/26 07:22:54;;;;;;;7.88;2.70;;;;;15.20;100754.00;;;;10311421;28;20192;-75
2022/10/26 07:27:58;;;;;;;5.60;3.07;;;;;15.20;100763.00;;;;10288221;28;20212;-76
2022/10/26 07:33:00;;;;;;;4.72;2.38;;;;;15.30;100766.00;;;;10286012;28;20217;-76
2022/10/26 07:38:03;;;;;;;7.32;2.22;;;;;15.50;100767.00;;;;10298205;28;20247;-76
2022/10/26 07:43:05;;;;;;;9.35;2.42;;;;;15.70;100770.00;;;;10280989;28;20203;-75
2022/10/26 07:48:07;;;;;;;4.00;2.08;;;;;15.80;100782.00;;;;10307277;28;20587;-76
2022/10/26 07:53:09;;;;;;;3.75;1.85;;;;;15.90;100780.00;;;;10287108;28;20216;-75
2022/10/26 07:58:11;;;;;;;5.18;2.38;;;;;16.20;100779.00;;;;10275400;28;20676;-75
2022/10/26 08:03:13;;;;;;;9.00;2.40;;;;;16.40;100798.00;;;;10296500;28;20731;-75
2022/10/26 08:08:14;;;;;;;11.00;2.55;;;;;16.50;100808.00;;;;10302314;28;20231;-75
2022/10/26 08:13:16;;;;;;;3.92;1.90;;;;;16.90;100819.00;;;;10294049;28;20209;-75
2022/10/26 08:18:18;;;;;;;2.75;1.58;;;;;17.30;100831.00;;;;10295303;28;20310;-76
2022/10/26 08:23:21;;;;;;;3.83;1.77;;;;;17.80;100839.00;;;;10297829;28;20746;-75
2022/10/26 08:28:23;;;;;;;6.03;2.00;;;;;18.30;100853.00;;;;10302698;28;20244;-75
2022/10/26 08:33:25;;;;;;;3.80;1.88;;;;;18.60;100858.00;;;;10322975;28;20208;-75
2022/10/26 08:38:27;;;;;;;4.93;2.17;;;;;19.00;100865.00;;;;10295463;28;20192;-75
2022/10/26 08:43:38;;;;;;;12.27;3.50;;;;;19.30;100867.00;;;;10308994;28;20192;-76
2022/10/26 08:48:50;;;;;;;6.88;4.07;;;;;19.60;100862.00;;;;10325713;28;20196;-76
2022/10/26 08:53:58;;;;;;;6.10;3.17;;;;;19.80;100865.00;;;;10274913;28;20785;-76
2022/10/26 08:59:02;;;;;;;6.40;2.63;;;;;20.00;100874.00;;;;10287855;28;20212;-75
2022/10/26 09:04:10;;;;;;;3.28;2.00;;;;;20.10;100885.00;;;;10287913;28;20231;-75
2022/10/26 09:09:15;;;;;;;1.80;1.23;;;;;20.00;100898.00;;;;10311357;28;20196;-75
2022/10/26 09:14:44;;;;;;;2.78;1.38;;;;;19.90;100914.00;;;;10300911;28;20606;-75
2022/10/26 09:20:13;;;;;;;3.70;1.42;;;;;20.00;100911.00;;;;10324720;28;20196;-75
2022/10/26 09:25:21;;;;;;;2.88;1.58;;;;;20.10;100908.00;;;;10280869;28;20196;-76
2022/10/26 09:30:23;;;;;;;3.47;1.33;;;;;20.20;100916.00;;;;10339246;28;20196;-76
2022/10/26 09:35:30;;;;;;;5.32;1.40;;;;;20.30;100927.00;;;;10303521;28;20213;-75
2022/10/26 09:40:45;;;;;;;7.45;1.67;;;;;20.50;100933.00;;;;10311500;28;20184;-76
2022/10/26 09:45:52;;;;;;;3.60;1.17;;;;;20.60;100924.00;;;;10300941;28;20327;-76
2022/10/26 09:50:55;;;;;;;2.97;1.23;;;;;20.70;100941.00;;;;10302255;28;20677;-75
2022/10/26 09:56:11;;;;;;;4.45;1.45;;;;;20.60;100950.00;;;;10283811;28;20247;-76
2022/10/26 10:01:40;;;;;;;3.75;1.02;;;;;20.60;100938.00;;;;10328581;28;20655;-76
2022/10/26 10:06:44;;;;;;;3.45;1.65;;;;;20.90;100951.00;;;;10304371;28;20699;-75
2022/10/26 10:11:57;;;;;;;4.47;1.33;;;;;21.30;100960.00;;;;10294319;28;20195;-76
2022/10/26 10:17:01;;;;;;;2.60;1.20;;;;;21.50;100979.00;;;;10314188;28;20220;-76
2022/10/26 10:22:17;;;;;;;5.63;1.30;;;;;21.90;100999.00;;;;10308507;28;20275;-76
2022/10/26 10:27:19;;;;;;;3.85;1.20;;;;;22.10;100995.00;;;;10309604;28;20203;-76
2022/10/26 10:32:22;;;;;;;3.42;1.35;;;;;22.10;100995.00;;;;10290292;28;20227;-76
2022/10/26 10:37:44;;;;;;;1.63;0.95;;;;;22.30;101010.00;;;;10310639;28;20201;-76
2022/10/26 10:42:47;;;;;;;4.03;1.67;;;;;22.40;101016.00;;;;10291249;28;20196;-76
2022/10/26 10:48:11;;;;;;;2.63;0.90;;;;;22.20;101013.00;;;;10301233;28;20536;-76
2022/10/26 10:53:25;;;;;;;4.22;1.00;;;;;22.00;101032.00;;;;10317780;28;20240;-76
2022/10/26 10:58:47;;;;;;;2.83;1.10;;;;;22.00;101039.00;;;;10316387;28;20251;-76
2022/10/26 11:04:21;;;;;;;5.20;1.40;;;;;22.00;101054.00;;;;10317121;28;20196;-76
2022/10/26 11:09:27;;;;;;;4.28;1.10;;;;;22.10;101058.00;;;;10319761;28;20197;-75
2022/10/26 11:14:33;;;;;;;4.22;1.40;;;;;22.10;101076.00;;;;10305485;28;20262;-75
2022/10/26 11:19:46;;;;;;;2.97;1.08;;;;;21.90;101084.00;;;;10317956;28;20199;-75
2022/10/26 11:24:49;;;;;;;5.28;0.93;;;;;21.90;101088.00;;;;10293513;28;20276;-75
2022/10/26 11:29:57;;;;;;;3.63;1.48;;;;;22.00;101083.00;;;;10301717;28;20197;-75
2022/10/26 11:35:25;;;;;;;4.82;2.47;;;;;22.00;101082.00;;;;10318902;28;20215;-75
2022/10/26 11:40:38;;;;;;;4.38;1.63;;;;;21.80;101072.00;;;;10305512;28;20192;-76
2022/10/26 11:45:43;;;;;;;3.75;1.40;;;;;21.90;101087.00;;;;10310487;28;20278;-76
2022/10/26 11:50:52;;;;;;;2.80;1.08;;;;;22.10;101078.00;;;;10272083;28;20205;-75
2022/10/26 11:55:55;;;;;;;5.72;1.30;;;;;22.30;101087.00;;;;10293307;28;20638;-76
2022/10/26 12:01:06;;;;;;;3.75;1.00;;;;;22.50;101077.00;;;;10286283;28;20196;-76
2022/10/26 12:06:09;;;;;;;4.45;1.05;;;;;22.70;101094.00;;;;10318892;28;20259;-75
2022/10/26 12:11:22;;;;;;;1.80;1.20;;;;;22.60;101104.00;;;;10291806;28;20204;-75
2022/10/26 12:16:39;;;;;;;3.08;1.05;;;;;22.50;101109.00;;;;10292649;28;20222;-76
2022/10/26 12:21:42;;;;;;;3.00;1.33;;;;;22.40;101103.00;;;;10322017;28;20203;-76
2022/10/26 12:26:57;;;;;;;7.78;1.70;;;;;22.60;101110.00;;;;10304199;28;20192;-76
2022/10/26 12:31:59;;;;;;;4.00;1.33;;;;;22.80;101117.00;;;;10270106;28;20726;-76
2022/10/26 12:37:01;;;;;;;3.35;1.40;;;;;22.90;101092.00;;;;10286486;28;20227;-76
2022/10/26 12:42:09;;;;;;;5.45;1.30;;;;;23.00;101108.00;;;;10292708;28;20284;-76
2022/10/26 12:47:29;;;;;;;2.00;1.00;;;;;23.20;101117.00;;;;10298336;28;20283;-76
2022/10/26 12:52:51;;;;;;;3.25;1.35;;;;;23.20;101121.00;;;;10303170;28;20286;-75
2022/10/26 12:58:27;;;;;;;3.42;1.38;;;;;23.10;101123.00;;;;10308867;28;20277;-75
2022/10/26 13:03:39;;;;;;;1.77;1.05;;;;;22.50;101125.00;;;;10294971;28;20194;-75
2022/10/26 13:08:44;;;;;;;2.92;1.05;;;;;22.20;101129.00;;;;10300470;28;20224;-75
2022/10/26 13:14:05;;;;;;;4.70;1.48;;;;;22.00;101128.00;;;;10282594;28;20202;-75
2022/10/26 13:19:22;;;;;;;3.75;0.95;;;;;21.90;101127.00;;;;10290619;28;20577;-75
2022/10/26 13:24:28;;;;;;;6.47;1.10;;;;;21.90;101133.00;;;;10286243;28;20246;-75
2022/10/26 13:29:32;;;;;;;2.50;0.95;;;;;21.80;101137.00;;;;10312422;28;20682;-75
2022/10/26 13:34:39;;;;;;;4.85;1.27;;;;;21.80;101142.00;;;;10300294;28;20227;-75
2022/10/26 13:39:43;;;;;;;2.55;1.17;;;;;21.70;101134.00;;;;10315518;28;20211;-75
2022/10/26 13:45:09;;;;;;;2.83;0.90;;;;;21.60;101130.00;;;;10296750;28;20284;-75
2022/10/26 13:50:16;;;;;;;5.55;1.40;;;;;21.60;101132.00;;;;10288414;28;20275;-75
2022/10/26 13:55:32;;;;;;;6.30;0.95;;;;;21.70;101147.00;;;;10278139;28;20217;-75
2022/10/26 14:00:34;;;;;;;2.47;0.90;;;;;23.10;101140.00;;;;10325198;28;20202;-75
2022/10/26 14:05:42;;;;;;;3.20;1.05;;;;;22.90;101153.00;;;;10296104;28;20690;-75
2022/10/26 14:10:55;;;;;;;4.10;1.20;;;;;22.50;101151.00;;;;10312297;28;20196;-75
2022/10/26 14:16:02;;;;;;;4.32;0.90;;;;;22.50;101157.00;;;;10329525;28;20643;-75
2022/10/26 14:21:41;;;;;;;2.88;1.15;;;;;22.80;101178.00;;;;10303515;28;20204;-75
2022/10/26 14:27:03;;;;;;;4.72;1.40;;;;;22.00;101191.00;;;;10288298;28;20196;-75
2022/10/26 14:32:41;;;;;;;3.83;1.10;;;;;21.20;101204.00;;;;10273464;28;20198;-75
2022/10/26 14:38:11;;;;;;;3.88;0.98;;;;;20.90;101209.00;;;;10264612;28;20196;-75
2022/10/26 14:44:03;;;;;;;3.75;1.20;;;;;20.80;101227.00;;;;10297332;28;20275;-75
2022/10/26 14:49:26;;;;;;;3.20;1.42;;;;;21.00;101213.00;;;;10298658;28;20206;-75
2022/10/26 14:54:32;;;;;;;3.80;1.23;;;;;21.10;101213.00;;;;10296153;28;20687;-75
2022/10/26 14:59:58;;;;;;;6.18;1.27;;;;;21.30;101220.00;;;;10314033;28;20196;-75
2022/10/26 15:05:28;;;;;;;5.60;1.10;;;;;21.10;101226.00;;;;10317048;28;20212;-75
2022/10/26 15:11:13;;;;;;;4.15;1.30;;;;;20.70;101227.00;;;;10293664;28;20250;-75
2022/10/26 15:16:22;;;;;;;7.93;1.67;;;;;20.50;101227.00;;;;10293655;28;20208;-75
2022/10/26 15:21:44;;;;;;;2.42;1.20;;;;;20.20;101231.00;;;;10290862;28;20599;-75
2022/10/26 15:26:49;;;;;;;2.90;0.80;;;;;20.00;101237.00;;;;10292686;28;20184;-76
2022/10/26 15:31:59;;;;;;;3.75;1.00;;;;;19.90;101241.00;;;;10276577;28;20196;-77
2022/10/26 15:37:02;;;;;;;4.13;1.25;;;;;19.80;101243.00;;;;10262181;28;20208;-76
2022/10/26 15:42:12;;;;;;;2.03;0.70;;;;;19.60;101242.00;;;;10268025;28;20834;-76
2022/10/26 15:47:18;;;;;;;3.70;1.00;;;;;19.50;101245.00;;;;10321009;28;20184;-76
2022/10/26 15:52:19;;;;;;;4.22;1.10;;;;;19.30;101259.00;;;;10310818;28;20184;-76
2022/10/26 15:57:23;;;;;;;3.55;1.02;;;;;19.10;101258.00;;;;10287153;28;20230;-76
2022/10/26 16:02:24;;;;;;;4.57;0.93;;;;;18.90;101266.00;;;;10323692;28;20760;-76
2022/10/26 16:07:27;;;;;;;4.57;1.08;;;;;18.80;101275.00;;;;10295808;28;20259;-76
2022/10/26 16:12:28;;;;;;;2.22;0.95;;;;;18.60;101284.00;;;;10301791;28;20191;-76
2022/10/26 16:17:32;;;;;;;4.20;1.00;;;;;18.50;101291.00;;;;10306521;28;20212;-75
2022/10/26 16:22:34;;;;;;;4.78;1.83;;;;;18.50;101293.00;;;;10295004;28;20197;-76
2022/10/26 16:27:39;;;;;;;4.55;3.38;;;;;18.30;101297.00;;;;10304492;28;20389;-76
2022/10/26 16:32:41;;;;;;;8.70;4.75;;;;;18.20;101299.00;;;;10326873;28;20196;-76
2022/10/26 16:37:44;;;;;;;7.63;3.85;;;;;18.10;101316.00;;;;10303821;28;20200;-76
2022/10/26 16:42:46;;;;;;;5.53;1.60;;;;;18.00;101322.00;;;;10304880;28;20188;-76
2022/10/26 16:47:48;;;;;;;2.45;1.17;;;;;17.80;101329.00;;;;10309932;28;20758;-76
2022/10/26 16:52:50;;;;;;;4.80;1.42;;;;;17.60;101330.00;;;;10291128;28;20271;-76
2022/10/26 16:57:52;;;;;;;2.75;1.10;;;;;17.50;101335.00;;;;10304715;28;20215;-76
2022/10/26 17:02:55;;;;;;;3.78;1.48;;;;;17.40;101331.00;;;;10311081;28;20197;-76
2022/10/26 17:07:57;;;;;;;4.00;1.33;;;;;17.40;101338.00;;;;10285868;28;20220;-76
2022/10/26 17:12:59;;;;;;;2.65;1.27;;;;;17.30;101359.00;;;;10305136;28;20212;-76
2022/10/26 17:18:03;;;;;;;4.78;1.50;;;;;17.40;101364.00;;;;10304556;28;20200;-76
2022/10/26 17:23:06;;;;;;;3.47;1.60;;;;;17.40;101361.00;;;;10282901;28;20192;-76
2022/10/26 17:28:08;;;;;;;5.65;1.75;;;;;17.30;101369.00;;;;10303450;28;20263;-76
2022/10/26 17:33:11;;;;;;;4.85;2.33;;;;;17.20;101380.00;;;;10294076;28;20244;-76
2022/10/26 17:38:12;;;;;;;6.57;1.63;;;;;17.10;101382.00;;;;10317222;28;20243;-76
2022/10/26 17:43:14;;;;;;;5.97;1.42;;;;;17.10;101396.00;;;;10286609;28;20239;-76
2022/10/26 17:48:16;;;;;;;3.92;1.30;;;;;17.20;101402.00;;;;10314348;28;20663;-76
2022/10/26 17:53:18;;;;;;;3.17;1.40;;;;;17.30;101405.00;;;;10319523;28;20208;-76
2022/10/26 17:58:20;;;;;;;7.55;1.60;;;;;17.30;101407.00;;;;10310043;28;20252;-76
2022/10/26 18:03:22;;;;;;;4.10;1.42;;;;;17.20;101411.00;;;;10284387;28;20255;-76
2022/10/26 18:08:24;;;;;;;5.03;1.33;;;;;17.10;101414.00;;;;10274942;28;20224;-76
2022/10/26 18:13:28;;;;;;;5.07;1.50;;;;;17.00;101425.00;;;;10330955;28;20201;-76
2022/10/26 18:18:29;;;;;;;3.90;1.33;;;;;17.00;101427.00;;;;10285893;28;20202;-76
2022/10/26 18:23:31;;;;;;;5.40;1.38;;;;;17.00;101434.00;;;;10316814;28;20244;-76
2022/10/26 18:28:36;;;;;;;7.35;1.73;;;;;16.80;101437.00;;;;10303681;28;20311;-76
2022/10/26 18:33:38;;;;;;;2.42;1.40;;;;;16.70;101438.00;;;;10314441;28;20224;-76
2022/10/26 18:38:41;;;;;;;2.78;1.33;;;;;16.60;101438.00;;;;10300982;28;20193;-76
2022/10/26 18:43:48;;;;;;;5.93;2.05;;;;;16.50;101449.00;;;;10311589;28;20203;-76
2022/10/26 18:48:57;;;;;;;4.47;1.52;;;;;16.40;101456.00;;;;10312140;28;21211;-76
2022/10/26 18:53:59;;;;;;;4.70;2.00;;;;;16.30;101462.00;;;;10275563;28;20227;-76
2022/10/26 18:59:01;;;;;;;5.22;2.10;;;;;16.20;101472.00;;;;10321516;28;20282;-76
2022/10/26 19:04:06;;;;;;;4.47;2.00;;;;;16.10;101475.00;;;;10261740;28;20652;-76
2022/10/26 19:09:09;;;;;;;7.10;4.28;;;;;16.00;101471.00;;;;10309828;28;20251;-76
2022/10/26 19:14:12;;;;;;;7.40;1.92;;;;;15.80;101482.00;;;;10300499;28;20213;-76
2022/10/26 19:19:15;;;;;;;6.22;1.75;;;;;15.70;101486.00;;;;10298914;28;20194;-76
2022/10/26 19:24:20;;;;;;;18.45;7.60;;;;;15.60;101483.00;;;;10315523;28;20196;-76
2022/10/26 19:29:22;;;;;;;22.48;10.35;;;;;15.60;101481.00;;;;10288668;28;20196;-76
2022/10/26 19:34:24;;;;;;;9.95;5.68;;;;;15.50;101482.00;;;;10286739;28;20204;-76
2022/10/26 19:39:27;;;;;;;3.33;2.05;;;;;15.50;101485.00;;;;10289929;28;20242;-76
2022/10/26 19:44:29;;;;;;;5.70;1.63;;;;;15.50;101489.00;;;;10282974;28;20184;-76
2022/10/26 19:49:31;;;;;;;3.95;1.65;;;;;15.50;101498.00;;;;10299192;28;20211;-76
2022/10/26 19:54:33;;;;;;;4.53;1.73;;;;;15.50;101512.00;;;;10281055;28;20327;-76
2022/10/26 19:59:35;;;;;;;6.95;1.65;;;;;15.50;101508.00;;;;10322002;28;20192;-76
2022/10/26 20:04:39;;;;;;;9.50;2.28;;;;;15.70;101518.00;;;;10286143;28;20215;-76
2022/10/26 20:09:40;;;;;;;4.32;1.83;;;;;15.80;101524.00;;;;10265952;28;20730;-76
2022/10/26 20:14:42;;;;;;;4.97;1.75;;;;;15.80;101529.00;;;;10273733;28;20196;-76
2022/10/26 20:19:44;;;;;;;5.90;2.23;;;;;15.80;101530.00;;;;10294253;28;20196;-76
2022/10/26 20:24:46;;;;;;;3.97;1.88;;;;;15.90;101535.00;;;;10294750;28;20657;-76
2022/10/26 20:29:48;;;;;;;3.13;2.00;;;;;15.80;101541.00;;;;10299494;28;20196;-76
2022/10/26 20:34:50;;;;;;;8.25;2.38;;;;;15.80;101538.00;;;;10268166;28;20212;-76
2022/10/26 20:39:53;;;;;;;3.50;2.33;;;;;15.70;101550.00;;;;10279150;28;20743;-76
2022/10/26 20:45:13;;;;;;;5.43;2.13;;;;;15.70;101545.00;;;;10273087;28;20539;-76
2022/10/26 20:50:16;;;;;;;4.03;1.60;;;;;15.60;101547.00;;;;10307155;28;20188;-76
2022/10/26 20:55:37;;;;;;;5.85;2.42;;;;;15.60;101547.00;;;;10277857;28;20207;-76
2022/10/26 21:00:45;;;;;;;6.28;1.92;;;;;15.60;101550.00;;;;10282964;28;20666;-76
2022/10/26 21:05:47;;;;;;;6.38;2.17;;;;;15.60;101552.00;;;;10296882;28;20683;-76
2022/10/26 21:10:50;;;;;;;5.68;2.08;;;;;15.50;101549.00;;;;10305994;28;20211;-77
2022/10/26 21:15:52;;;;;;;4.65;1.85;;;;;15.50;101561.00;;;;10277071;28;20227;-76
2022/10/26 21:20:59;;;;;;;4.50;1.88;;;;;15.50;101560.00;;;;10292476;28;20655;-76
2022/10/26 21:26:01;;;;;;;3.40;2.00;;;;;15.50;101560.00;;;;10326900;28;20199;-76
2022/10/26 21:31:04;;;;;;;8.85;2.15;;;;;15.40;101550.00;;;;10311972;28;20208;-76
2022/10/26 21:36:10;;;;;;;6.88;2.97;;;;;15.30;101552.00;;;;10310967;28;20213;-76
2022/10/26 21:41:14;;;;;;;7.50;3.22;;;;;15.20;101544.00;;;;10296442;28;20192;-76
2022/10/26 21:46:18;;;;;;;8.02;2.95;;;;;15.10;101546.00;;;;10311759;28;20640;-76
2022/10/26 21:51:20;;;;;;;9.07;3.13;;;;;15.20;101543.00;;;;10314913;28;20271;-76
2022/10/26 21:56:22;;;;;;;7.80;3.80;;;;;15.20;101548.00;;;;10319058;28;20216;-76
2022/10/26 22:01:23;;;;;;;7.40;3.08;;;;;15.30;101546.00;;;;10262693;28;20193;-76
2022/10/26 22:06:26;;;;;;;10.98;3.20;;;;;15.20;101548.00;;;;10271441;28;20215;-76
2022/10/26 22:11:27;;;;;;;7.03;2.80;;;;;15.10;101563.00;;;;10323638;28;20701;-76
2022/10/26 22:16:31;;;;;;;8.82;3.28;;;;;15.10;101558.00;;;;10331650;28;20201;-76
2022/10/26 22:21:35;;;;;;;6.05;2.65;;;;;15.00;101557.00;;;;10310220;28;20275;-76
2022/10/26 22:26:37;;;;;;;7.45;2.58;;;;;15.00;101550.00;;;;10307880;28;20184;-76
2022/10/26 22:31:39;;;;;;;6.80;2.83;;;;;14.90;101556.00;;;;10314521;28;20228;-76
2022/10/26 22:36:42;;;;;;;7.57;2.45;;;;;14.80;101564.00;;;;10333503;28;20228;-76
2022/10/26 22:41:43;;;;;;;11.18;2.92;;;;;14.60;101548.00;;;;10281878;28;20287;-76
2022/10/26 22:46:45;;;;;;;6.20;3.00;;;;;14.60;101552.00;;;;10257851;28;20196;-76
2022/10/26 22:51:47;;;;;;;6.55;2.63;;;;;14.60;101542.00;;;;10271177;28;20200;-76
2022/10/26 22:56:49;;;;;;;8.85;2.78;;;;;14.60;101535.00;;;;10300181;28;20217;-76
2022/10/26 23:01:51;;;;;;;8.43;2.70;;;;;14.50;101536.00;;;;10281493;28;20203;-76
2022/10/26 23:06:53;;;;;;;6.23;3.03;;;;;14.40;101536.00;;;;10312208;28;20717;-76
2022/10/26 23:11:55;;;;;;;7.80;2.80;;;;;14.30;101526.00;;;;10302822;28;20243;-76
2022/10/26 23:16:56;;;;;;;5.33;2.67;;;;;14.30;101533.00;;;;10312285;28;20282;-76
2022/10/26 23:21:58;;;;;;;5.80;2.77;;;;;14.30;101543.00;;;;10317421;28;20652;-76
2022/10/26 23:27:01;;;;;;;6.97;2.40;;;;;14.30;101539.00;;;;10294091;28;20201;-75
2022/10/26 23:32:03;;;;;;;7.97;2.73;;;;;14.30;101535.00;;;;10301737;28;20212;-76
2022/10/26 23:37:05;;;;;;;8.30;2.70;;;;;14.40;101537.00;;;;10304131;28;20212;-76
2022/10/26 23:42:06;;;;;;;6.03;2.13;;;;;14.40;101535.00;;;;10294433;28;20193;-76
2022/10/26 23:47:08;;;;;;;5.83;2.50;;;;;14.30;101535.00;;;;10275742;28;20713;-76
2022/10/26 23:52:10;;;;;;;6.37;2.77;;;;;14.20;101531.00;;;;10277226;28;20192;-76
2022/10/26 23:57:12;;;;;;;8.20;2.92;;;;;14.10;101538.00;;;;10303860;28;20222;-76
